Time;durP1;ratioP1;P1;durP2;ratioP2;P2;SDS_P1;SDS_P2;PMS_P1;PMS_P2;Temp;Humidity;BMP_temperature;BMP_pressure;BME280_temperature;BME280_humidity;BME280_pressure;Samples;Min_cycle;Max_cycle;Signal;HPM_P1;HPM_P2
2021/08/01 00:01:31;;;;;;;1.50;0.90;;;18.80;98.20;;;;;;4976094;28;20493;-78
2021/08/01 00:03:57;;;;;;;1.50;1.00;;;18.80;97.80;;;;;;4985206;28;20457;-77
2021/08/01 00:06:24;;;;;;;1.50;1.00;;;18.80;98.20;;;;;;4979526;28;20487;-77
2021/08/01 00:08:53;;;;;;;1.50;0.90;;;18.80;98.20;;;;;;4988040;28;20528;-78
2021/08/01 00:11:20;;;;;;;1.50;0.93;;;18.70;98.20;;;;;;4979047;28;20488;-78
2021/08/01 00:13:47;;;;;;;1.50;1.00;;;18.70;98.20;;;;;;4990559;28;20492;-80
2021/08/01 00:16:15;;;;;;;1.50;0.90;;;18.70;98.20;;;;;;4978357;28;20550;-77
2021/08/01 00:18:42;;;;;;;1.50;0.90;;;18.60;98.20;;;;;;4989154;28;20539;-78
2021/08/01 00:21:08;;;;;;;1.50;1.00;;;18.60;98.20;;;;;;4980842;28;20907;-78
2021/08/01 00:23:35;;;;;;;1.50;1.00;;;18.60;98.20;;;;;;4988123;28;20465;-77
2021/08/01 00:26:03;;;;;;;1.50;0.90;;;18.60;98.20;;;;;;4980198;28;20492;-79
2021/08/01 00:28:31;;;;;;;1.50;0.90;;;18.60;98.20;;;;;;4986377;28;20525;-79
2021/08/01 00:30:59;;;;;;;1.50;0.90;;;18.60;98.20;;;;;;4978591;28;20465;-76
2021/08/01 00:33:26;;;;;;;1.50;0.90;;;18.50;98.20;;;;;;4980960;28;20551;-78
2021/08/01 00:35:53;;;;;;;1.47;0.90;;;18.50;98.20;;;;;;4978653;28;20466;-76
2021/08/01 00:38:20;;;;;;;1.50;1.00;;;18.50;98.20;;;;;;4967520;28;20489;-78
2021/08/01 00:40:47;;;;;;;1.50;0.90;;;18.40;98.20;;;;;;4976214;28;20495;-76
2021/08/01 00:43:15;;;;;;;1.50;0.90;;;18.40;98.20;;;;;;4983613;28;20614;-77
2021/08/01 00:45:42;;;;;;;1.50;1.17;;;18.40;98.20;;;;;;4988780;28;20473;-77
2021/08/01 00:48:10;;;;;;;1.50;1.00;;;18.40;98.20;;;;;;4972933;28;20481;-79
2021/08/01 00:50:38;;;;;;;1.50;0.90;;;18.40;98.20;;;;;;4988252;28;20949;-74
2021/08/01 00:53:06;;;;;;;1.50;0.90;;;18.40;98.20;;;;;;4972373;28;20481;-76
2021/08/01 00:55:33;;;;;;;1.50;0.90;;;18.40;98.20;;;;;;4988891;28;20472;-77
2021/08/01 00:58:00;;;;;;;1.50;1.00;;;18.30;98.20;;;;;;4975557;28;20499;-78
2021/08/01 01:00:48;;;;;;;1.50;0.97;;;18.30;98.20;;;;;;4987727;28;20652;-76
2021/08/01 01:03:17;;;;;;;1.50;0.90;;;18.30;98.20;;;;;;4976080;28;20518;-78
2021/08/01 01:05:52;;;;;;;1.50;1.00;;;18.30;98.20;;;;;;4981532;28;20469;-77
2021/08/01 01:08:25;;;;;;;1.50;0.90;;;18.30;98.20;;;;;;4951501;28;20792;-79
2021/08/01 01:10:57;;;;;;;1.50;1.00;;;18.20;98.20;;;;;;4977769;28;20472;-79
2021/08/01 01:13:28;;;;;;;1.50;1.00;;;18.30;98.20;;;;;;4972796;28;20473;-79
2021/08/01 01:15:59;;;;;;;1.50;0.90;;;18.20;98.20;;;;;;4976548;28;20710;-78
2021/08/01 01:18:29;;;;;;;1.50;0.90;;;18.20;98.20;;;;;;4968771;28;20984;-79
2021/08/01 01:21:19;;;;;;;1.50;1.00;;;18.20;98.20;;;;;;4973412;28;20476;-78
2021/08/01 01:23:48;;;;;;;1.50;0.93;;;18.20;98.20;;;;;;4982766;28;20476;-78
2021/08/01 01:26:20;;;;;;;1.50;1.00;;;18.20;98.20;;;;;;4975595;28;20485;-78
2021/08/01 01:28:53;;;;;;;1.50;0.90;;;18.20;98.20;;;;;;4971853;28;20485;-80
2021/08/01 01:31:40;;;;;;;1.50;0.90;;;18.20;98.20;;;;;;4979228;28;20540;-79
2021/08/01 01:34:13;;;;;;;1.50;1.00;;;18.20;98.20;;;;;;4982013;28;20472;-77
2021/08/01 01:36:43;;;;;;;1.50;0.90;;;18.10;98.20;;;;;;4975009;28;20510;-78
2021/08/01 01:39:11;;;;;;;1.50;1.00;;;18.10;98.20;;;;;;4987988;28;20457;-77
2021/08/01 01:41:43;;;;;;;1.50;1.00;;;18.10;98.20;;;;;;4977030;28;20838;-76
2021/08/01 01:44:10;;;;;;;1.50;1.00;;;18.20;98.20;;;;;;4988165;28;20481;-76
2021/08/01 01:46:38;;;;;;;1.50;1.00;;;18.10;98.20;;;;;;4977555;28;20480;-75
2021/08/01 01:49:06;;;;;;;1.50;0.97;;;18.10;98.20;;;;;;4987977;28;20552;-77
2021/08/01 01:51:33;;;;;;;1.50;0.90;;;18.10;98.20;;;;;;4979056;28;20495;-76
2021/08/01 01:54:02;;;;;;;1.50;1.00;;;18.10;98.20;;;;;;4987239;28;20469;-78
2021/08/01 01:56:31;;;;;;;1.50;1.00;;;18.10;98.20;;;;;;4967669;28;20545;-78
2021/08/01 01:58:58;;;;;;;1.50;1.00;;;18.10;98.20;;;;;;4985196;28;20476;-78
2021/08/01 02:01:25;;;;;;;1.50;1.00;;;18.10;98.20;;;;;;4977555;28;20486;-80
2021/08/01 02:03:52;;;;;;;1.47;0.90;;;18.10;98.20;;;;;;4988129;28;20979;-76
2021/08/01 02:06:20;;;;;;;1.50;0.90;;;18.10;98.20;;;;;;4974882;28;20548;-76
2021/08/01 02:08:55;;;;;;;1.50;0.90;;;18.10;98.20;;;;;;4972292;28;20488;-76
2021/08/01 02:11:27;;;;;;;1.50;0.90;;;18.10;98.20;;;;;;4976321;28;20491;-77
2021/08/01 02:14:05;;;;;;;1.50;0.90;;;18.10;98.20;;;;;;4981643;28;20468;-77
2021/08/01 02:16:34;;;;;;;1.50;0.90;;;18.10;98.20;;;;;;4972058;28;20489;-78
2021/08/01 02:19:06;;;;;;;1.50;0.90;;;18.10;98.20;;;;;;4974383;28;20487;-76
2021/08/01 02:21:34;;;;;;;1.50;0.90;;;18.10;98.20;;;;;;4979354;28;20484;-76
2021/08/01 02:24:02;;;;;;;1.50;0.90;;;18.10;98.20;;;;;;4986787;28;20469;-78
2021/08/01 02:26:31;;;;;;;1.50;1.00;;;18.10;98.20;;;;;;4979466;28;20489;-77
2021/08/01 02:28:58;;;;;;;1.50;0.90;;;18.00;98.20;;;;;;4980495;28;20485;-79
2021/08/01 02:31:25;;;;;;;1.50;0.90;;;18.00;98.20;;;;;;4976304;28;20476;-77
2021/08/01 02:33:53;;;;;;;1.50;0.90;;;18.00;98.20;;;;;;4985232;28;20457;-77
2021/08/01 02:36:21;;;;;;;1.50;0.90;;;18.00;98.20;;;;;;4983468;28;20930;-78
2021/08/01 02:38:52;;;;;;;1.50;1.00;;;18.00;98.20;;;;;;4986264;28;20473;-78
2021/08/01 02:41:22;;;;;;;1.50;1.00;;;18.00;98.20;;;;;;4974275;28;20998;-74
2021/08/01 02:43:51;;;;;;;1.50;1.00;;;18.00;98.20;;;;;;4984170;28;20461;-77
2021/08/01 02:46:21;;;;;;;1.50;1.00;;;18.00;98.20;;;;;;4978937;28;21024;-78
2021/08/01 02:48:49;;;;;;;1.50;0.90;;;17.90;98.20;;;;;;4988312;28;20485;-79
2021/08/01 02:51:17;;;;;;;1.50;1.00;;;18.00;98.20;;;;;;4976659;28;20782;-76
2021/08/01 02:53:47;;;;;;;1.50;1.00;;;18.00;98.20;;;;;;4981249;28;20476;-78
2021/08/01 02:56:16;;;;;;;1.50;1.00;;;18.00;98.20;;;;;;4976488;28;20904;-75
2021/08/01 02:58:43;;;;;;;1.50;0.90;;;17.90;98.20;;;;;;4985359;28;20485;-76
2021/08/01 03:01:12;;;;;;;1.50;1.00;;;17.90;98.20;;;;;;4975868;28;20853;-76
2021/08/01 03:03:41;;;;;;;1.50;1.10;;;17.90;98.20;;;;;;4974693;28;20965;-76
2021/08/01 03:06:09;;;;;;;1.50;0.90;;;17.90;98.20;;;;;;4979087;28;20822;-76
2021/08/01 03:08:36;;;;;;;1.50;1.00;;;17.90;98.20;;;;;;4983284;28;20497;-75
2021/08/01 03:11:03;;;;;;;1.50;0.93;;;17.90;98.20;;;;;;4978902;28;20465;-77
2021/08/01 03:13:30;;;;;;;1.50;0.90;;;17.90;98.20;;;;;;4980793;28;20472;-77
2021/08/01 03:15:57;;;;;;;1.50;1.00;;;17.90;98.20;;;;;;4976588;28;20981;-77
2021/08/01 03:18:25;;;;;;;1.50;0.90;;;17.90;98.20;;;;;;4985987;28;20485;-77
2021/08/01 03:20:52;;;;;;;1.50;1.00;;;17.90;98.20;;;;;;4979731;28;20915;-76
2021/08/01 03:23:19;;;;;;;1.50;1.00;;;17.90;98.20;;;;;;4984436;28;20957;-77
2021/08/01 03:25:45;;;;;;;1.50;0.90;;;17.80;98.20;;;;;;4989140;28;20842;-78
2021/08/01 03:28:12;;;;;;;1.50;0.90;;;17.80;98.20;;;;;;4985580;28;20497;-77
2021/08/01 03:30:39;;;;;;;1.50;1.00;;;17.80;98.20;;;;;;4988583;28;20549;-78
2021/08/01 03:33:05;;;;;;;1.50;0.93;;;17.80;98.20;;;;;;4978273;28;20489;-77
2021/08/01 03:35:33;;;;;;;1.50;0.90;;;17.80;98.20;;;;;;4991031;28;20460;-77
2021/08/01 03:38:00;;;;;;;1.50;0.97;;;17.80;98.20;;;;;;4976348;28;20485;-78
2021/08/01 03:40:27;;;;;;;1.50;0.90;;;17.70;98.20;;;;;;4990150;28;20461;-77
2021/08/01 03:42:55;;;;;;;1.50;1.00;;;17.70;98.20;;;;;;4966473;28;20489;-77
2021/08/01 03:45:21;;;;;;;1.50;1.00;;;17.70;98.20;;;;;;4990782;28;20464;-78
2021/08/01 03:47:48;;;;;;;1.50;1.00;;;17.70;98.20;;;;;;4975600;28;20487;-77
2021/08/01 03:50:15;;;;;;;1.50;1.00;;;17.70;98.20;;;;;;4989276;28;20488;-78
2021/08/01 03:52:43;;;;;;;1.50;1.00;;;17.70;98.20;;;;;;4971977;28;21046;-75
2021/08/01 03:55:11;;;;;;;1.53;1.10;;;17.60;98.20;;;;;;4986888;28;20473;-78
2021/08/01 03:57:38;;;;;;;1.50;1.00;;;17.60;98.20;;;;;;4972292;28;20529;-78
2021/08/01 04:00:07;;;;;;;1.50;1.00;;;17.60;98.20;;;;;;4988937;28;21003;-76
2021/08/01 04:02:35;;;;;;;1.50;0.90;;;17.60;98.20;;;;;;4972675;28;20485;-77
2021/08/01 04:05:02;;;;;;;1.50;0.97;;;17.50;98.20;;;;;;4988735;28;20504;-77
2021/08/01 04:07:29;;;;;;;1.50;1.00;;;17.50;98.20;;;;;;4973086;28;20488;-76
2021/08/01 04:09:57;;;;;;;1.50;1.00;;;17.50;98.20;;;;;;4989058;28;20934;-77
2021/08/01 04:12:24;;;;;;;1.53;1.00;;;17.50;98.20;;;;;;4972538;28;21058;-77
2021/08/01 04:14:51;;;;;;;1.50;0.90;;;17.40;98.20;;;;;;4989836;28;20472;-77
2021/08/01 04:17:18;;;;;;;1.57;1.00;;;17.40;98.20;;;;;;4977459;28;21011;-77
2021/08/01 04:19:45;;;;;;;1.50;1.00;;;17.40;98.20;;;;;;4985648;28;20846;-77
2021/08/01 04:22:13;;;;;;;1.53;1.00;;;17.40;98.20;;;;;;4976803;28;20488;-77
2021/08/01 04:24:40;;;;;;;1.50;0.90;;;17.30;98.20;;;;;;4988298;28;20875;-78
2021/08/01 04:27:09;;;;;;;1.50;1.00;;;17.30;98.20;;;;;;4977584;28;20489;-76
2021/08/01 04:29:35;;;;;;;1.50;0.90;;;17.30;98.20;;;;;;4985382;28;20485;-77
2021/08/01 04:32:03;;;;;;;1.53;1.10;;;17.30;98.20;;;;;;4965281;28;21017;-77
2021/08/01 04:34:30;;;;;;;1.50;1.00;;;17.30;98.20;;;;;;4979621;28;20477;-78
2021/08/01 04:36:56;;;;;;;1.50;1.00;;;17.20;98.20;;;;;;4974996;28;20866;-76
2021/08/01 04:39:23;;;;;;;1.50;1.00;;;17.20;98.20;;;;;;4986283;28;20466;-76
2021/08/01 04:41:50;;;;;;;1.50;1.00;;;17.20;98.20;;;;;;4977304;28;20480;-77
2021/08/01 04:44:18;;;;;;;1.50;0.90;;;17.20;98.20;;;;;;4982512;28;20544;-78
2021/08/01 04:46:45;;;;;;;1.50;0.90;;;17.20;98.20;;;;;;4967999;28;20477;-78
2021/08/01 04:49:11;;;;;;;1.50;1.00;;;17.20;98.20;;;;;;4973365;28;20489;-77
2021/08/01 04:51:38;;;;;;;1.50;1.00;;;17.20;98.20;;;;;;4976742;28;20596;-78
2021/08/01 04:54:05;;;;;;;1.50;1.00;;;17.20;98.20;;;;;;4983272;28;20853;-78
2021/08/01 04:56:32;;;;;;;1.50;0.97;;;17.20;98.20;;;;;;4977540;28;20484;-77
2021/08/01 04:58:58;;;;;;;1.50;1.00;;;17.20;98.20;;;;;;4985318;28;20483;-78
2021/08/01 05:01:27;;;;;;;1.50;0.90;;;17.20;98.20;;;;;;4968136;28;20511;-77
2021/08/01 05:03:53;;;;;;;1.50;0.90;;;17.20;98.20;;;;;;4981332;28;20832;-77
2021/08/01 05:06:20;;;;;;;1.50;1.00;;;17.10;98.20;;;;;;4974638;28;20484;-77
2021/08/01 05:08:47;;;;;;;1.50;0.90;;;17.10;98.20;;;;;;4987239;28;20491;-76
2021/08/01 05:11:13;;;;;;;1.60;1.10;;;17.10;98.20;;;;;;4979489;28;20500;-76
2021/08/01 05:13:40;;;;;;;1.50;1.10;;;17.10;98.20;;;;;;4987940;28;20469;-76
2021/08/01 05:16:07;;;;;;;1.50;1.00;;;17.10;98.20;;;;;;4977146;28;20478;-78
2021/08/01 05:18:35;;;;;;;1.50;0.90;;;17.10;98.20;;;;;;4988892;28;20588;-77
2021/08/01 05:21:02;;;;;;;1.50;0.90;;;17.10;98.20;;;;;;4978582;28;20464;-77
2021/08/01 05:23:28;;;;;;;1.50;1.10;;;17.10;98.20;;;;;;4974175;28;20461;-77
2021/08/01 05:25:57;;;;;;;1.50;0.90;;;17.10;98.20;;;;;;4982017;28;20472;-77
2021/08/01 05:28:24;;;;;;;1.50;0.90;;;17.00;98.20;;;;;;4985293;28;20507;-77
2021/08/01 05:30:51;;;;;;;1.50;1.00;;;17.00;98.20;;;;;;4984112;28;20488;-77
2021/08/01 05:33:17;;;;;;;1.50;1.00;;;17.00;98.20;;;;;;4985441;28;20470;-77
2021/08/01 05:35:46;;;;;;;1.50;1.00;;;16.90;98.20;;;;;;4990507;28;20465;-77
2021/08/01 05:38:12;;;;;;;1.50;1.00;;;17.00;98.20;;;;;;4966059;28;20560;-77
2021/08/01 05:40:43;;;;;;;1.50;0.90;;;17.00;98.20;;;;;;4989668;28;20467;-78
2021/08/01 05:43:10;;;;;;;1.50;1.00;;;17.00;98.20;;;;;;4980909;28;20516;-76
2021/08/01 05:45:37;;;;;;;1.50;1.00;;;17.00;98.20;;;;;;4992319;28;21092;-77
2021/08/01 05:48:04;;;;;;;1.60;1.03;;;17.00;98.20;;;;;;4977528;28;20654;-77
2021/08/01 05:50:31;;;;;;;1.50;0.90;;;17.00;98.20;;;;;;4989272;28;20516;-77
2021/08/01 05:52:59;;;;;;;1.50;1.00;;;17.10;98.20;;;;;;4980267;28;20493;-78
2021/08/01 05:55:26;;;;;;;1.50;1.00;;;17.10;98.20;;;;;;4990819;28;20475;-78
2021/08/01 05:57:53;;;;;;;1.50;0.90;;;17.10;98.20;;;;;;4980366;28;20491;-76
2021/08/01 06:00:20;;;;;;;1.50;1.00;;;17.20;98.20;;;;;;4989612;28;20469;-78
2021/08/01 06:02:47;;;;;;;1.50;0.97;;;17.40;98.20;;;;;;4977913;28;20591;-78
2021/08/01 06:05:14;;;;;;;1.50;1.00;;;17.70;98.20;;;;;;4992814;28;20560;-78
2021/08/01 06:07:41;;;;;;;1.50;1.00;;;17.90;98.20;;;;;;4978608;28;20484;-76
2021/08/01 06:10:10;;;;;;;1.50;0.90;;;18.20;98.20;;;;;;4987517;28;20492;-77
2021/08/01 06:12:37;;;;;;;1.50;0.90;;;18.50;98.20;;;;;;4964539;28;20473;-77
2021/08/01 06:15:04;;;;;;;1.50;1.00;;;18.70;98.20;;;;;;4988394;28;20457;-76
2021/08/01 06:17:31;;;;;;;1.50;1.00;;;18.90;98.20;;;;;;4968140;28;20485;-77
2021/08/01 06:19:58;;;;;;;1.50;1.00;;;19.10;98.00;;;;;;4989938;28;20461;-78
2021/08/01 06:22:26;;;;;;;1.50;0.90;;;19.30;96.80;;;;;;4971888;28;20488;-78
2021/08/01 06:24:53;;;;;;;1.53;1.00;;;19.50;96.70;;;;;;4988433;28;20457;-79
2021/08/01 06:27:21;;;;;;;1.50;0.90;;;19.70;96.30;;;;;;4971035;28;20890;-77
2021/08/01 06:29:48;;;;;;;1.50;1.00;;;20.00;95.30;;;;;;4989071;28;20489;-80
2021/08/01 06:32:15;;;;;;;1.50;1.00;;;20.10;94.10;;;;;;4971303;28;20485;-77
2021/08/01 06:34:42;;;;;;;1.53;1.00;;;20.30;93.90;;;;;;4984009;28;20488;-78
2021/08/01 06:37:09;;;;;;;1.50;0.90;;;20.40;93.40;;;;;;4971383;28;20481;-79
2021/08/01 06:39:36;;;;;;;1.50;0.90;;;20.50;92.70;;;;;;4989356;28;20928;-79
2021/08/01 06:42:03;;;;;;;1.50;1.00;;;20.70;92.50;;;;;;4980472;28;20496;-76
2021/08/01 06:44:31;;;;;;;1.50;0.90;;;20.80;92.00;;;;;;4991112;28;20853;-77
2021/08/01 06:46:58;;;;;;;1.50;0.90;;;21.00;92.10;;;;;;4971250;28;20493;-80
2021/08/01 06:49:25;;;;;;;1.50;0.90;;;21.10;90.80;;;;;;4986062;28;20491;-79
2021/08/01 06:51:52;;;;;;;1.50;0.90;;;21.30;90.10;;;;;;4971716;28;20481;-79
2021/08/01 06:54:18;;;;;;;1.50;0.90;;;21.30;89.60;;;;;;4983110;28;20560;-78
2021/08/01 06:56:45;;;;;;;1.50;0.90;;;21.40;90.00;;;;;;4978539;28;20495;-79
2021/08/01 06:59:12;;;;;;;1.50;0.90;;;21.50;89.80;;;;;;4988588;28;20556;-77
2021/08/01 07:01:40;;;;;;;1.60;1.00;;;21.60;89.00;;;;;;4973601;28;20593;-77
2021/08/01 07:04:07;;;;;;;1.50;0.90;;;21.60;88.60;;;;;;4979173;28;20944;-77
2021/08/01 07:06:34;;;;;;;1.50;0.90;;;21.50;89.30;;;;;;4974706;28;20494;-77
2021/08/01 07:09:01;;;;;;;1.50;0.93;;;21.50;88.80;;;;;;4974047;28;20576;-76
2021/08/01 07:11:28;;;;;;;1.50;0.97;;;21.40;89.40;;;;;;4976337;28;20493;-77
2021/08/01 07:13:55;;;;;;;1.50;0.90;;;21.40;90.20;;;;;;4989002;28;20472;-77
2021/08/01 07:16:21;;;;;;;1.50;0.90;;;21.30;89.90;;;;;;4979874;28;20576;-77
2021/08/01 07:18:50;;;;;;;1.50;0.90;;;21.40;90.20;;;;;;4980088;28;20995;-77
2021/08/01 07:21:17;;;;;;;1.50;0.90;;;21.40;89.90;;;;;;4978009;28;20492;-77
2021/08/01 07:23:43;;;;;;;1.50;0.90;;;21.60;89.50;;;;;;4985244;28;20475;-77
2021/08/01 07:26:10;;;;;;;1.50;0.93;;;21.70;88.50;;;;;;4981421;28;20529;-77
2021/08/01 07:28:38;;;;;;;1.50;0.90;;;21.80;88.10;;;;;;4983448;28;20489;-78
2021/08/01 07:31:04;;;;;;;1.50;0.90;;;21.80;88.00;;;;;;4979354;28;21152;-80
2021/08/01 07:33:31;;;;;;;1.50;0.90;;;21.80;88.30;;;;;;4989155;28;20464;-79
2021/08/01 07:35:59;;;;;;;1.50;0.90;;;22.00;88.20;;;;;;4978022;28;20472;-78
2021/08/01 07:38:26;;;;;;;1.50;0.90;;;22.20;87.90;;;;;;4991940;28;20500;-78
2021/08/01 07:40:53;;;;;;;1.50;0.90;;;22.50;87.10;;;;;;4976442;28;20957;-80
2021/08/01 07:43:20;;;;;;;1.50;0.90;;;22.80;87.10;;;;;;4971389;28;20480;-77
2021/08/01 07:45:46;;;;;;;1.50;0.90;;;23.00;85.20;;;;;;4984457;28;20465;-78
2021/08/01 07:48:13;;;;;;;1.50;0.90;;;23.10;84.10;;;;;;4967115;28;20574;-75
2021/08/01 07:50:40;;;;;;;1.50;0.90;;;23.00;83.90;;;;;;4988533;28;20485;-79
2021/08/01 07:53:08;;;;;;;1.50;0.90;;;22.90;84.10;;;;;;4958339;28;21176;-78
2021/08/01 07:55:35;;;;;;;1.50;0.90;;;23.00;84.60;;;;;;4989299;28;20501;-78
2021/08/01 07:58:02;;;;;;;1.50;0.90;;;23.10;84.70;;;;;;4962063;28;21160;-79
2021/08/01 08:00:29;;;;;;;1.50;0.90;;;23.20;83.10;;;;;;4987499;28;20469;-79
2021/08/01 08:02:55;;;;;;;1.50;0.90;;;23.30;83.40;;;;;;4974188;28;20591;-78
2021/08/01 08:05:22;;;;;;;1.50;0.90;;;23.50;82.60;;;;;;4982474;28;20487;-79
2021/08/01 08:07:49;;;;;;;1.50;0.90;;;23.80;82.60;;;;;;4973260;28;20780;-77
2021/08/01 08:10:17;;;;;;;1.50;0.90;;;23.90;81.40;;;;;;4984122;28;20484;-77
2021/08/01 08:12:44;;;;;;;1.50;0.90;;;24.00;81.50;;;;;;4972776;28;21006;-81
2021/08/01 08:15:12;;;;;;;1.50;0.90;;;24.00;81.70;;;;;;4984796;28;20476;-78
2021/08/01 08:17:39;;;;;;;1.50;0.90;;;24.10;80.60;;;;;;4973635;28;20493;-78
2021/08/01 08:20:08;;;;;;;1.50;0.90;;;23.80;80.40;;;;;;4986637;28;20978;-80
2021/08/01 08:22:36;;;;;;;1.50;0.90;;;23.60;81.00;;;;;;4974648;28;20484;-76
2021/08/01 08:25:03;;;;;;;1.50;0.80;;;23.50;81.80;;;;;;4987015;28;21024;-79
2021/08/01 08:27:32;;;;;;;1.50;0.90;;;23.50;81.80;;;;;;4976609;28;20496;-79
2021/08/01 08:29:58;;;;;;;1.50;0.83;;;23.60;81.50;;;;;;4984791;28;20615;-78
2021/08/01 08:32:25;;;;;;;1.50;0.90;;;23.60;80.70;;;;;;4970245;28;20484;-75
2021/08/01 08:34:52;;;;;;;1.50;0.90;;;23.70;80.60;;;;;;4982044;28;20461;-75
2021/08/01 08:37:19;;;;;;;1.50;0.90;;;23.80;80.30;;;;;;4979942;28;20524;-77
2021/08/01 08:39:46;;;;;;;1.60;1.20;;;24.00;80.00;;;;;;4980634;28;20476;-76
2021/08/01 08:42:15;;;;;;;1.50;0.90;;;24.20;79.70;;;;;;4969031;28;20485;-79
2021/08/01 08:44:43;;;;;;;1.50;0.90;;;24.20;80.00;;;;;;4983207;28;20468;-80
2021/08/01 08:47:10;;;;;;;1.50;0.93;;;24.20;79.80;;;;;;4960797;28;20941;-79
2021/08/01 08:49:38;;;;;;;1.50;0.90;;;24.00;80.00;;;;;;4974049;28;20583;-77
2021/08/01 08:52:08;;;;;;;1.50;0.90;;;24.00;81.00;;;;;;4972218;28;20588;-75
2021/08/01 08:54:40;;;;;;;1.50;0.90;;;24.00;80.30;;;;;;4980358;28;20468;-78
2021/08/01 08:57:17;;;;;;;1.50;0.90;;;23.90;80.30;;;;;;4973029;28;20485;-78
2021/08/01 08:59:45;;;;;;;1.50;0.90;;;23.90;80.60;;;;;;4981397;28;20979;-77
2021/08/01 09:02:14;;;;;;;1.50;0.90;;;23.90;80.40;;;;;;4969767;28;20485;-78
2021/08/01 09:04:43;;;;;;;1.50;0.90;;;23.90;80.00;;;;;;4976396;28;20476;-79
2021/08/01 09:07:09;;;;;;;1.50;0.90;;;23.80;79.90;;;;;;4960460;28;20494;-76
2021/08/01 09:09:37;;;;;;;1.50;0.90;;;23.80;79.80;;;;;;4976962;28;20479;-78
2021/08/01 09:12:04;;;;;;;1.50;0.90;;;23.80;79.30;;;;;;4966008;28;20572;-77
2021/08/01 09:14:31;;;;;;;1.50;0.90;;;23.80;79.70;;;;;;4982415;28;20460;-77
2021/08/01 09:16:59;;;;;;;1.50;0.80;;;24.00;79.20;;;;;;4963208;28;20520;-76
2021/08/01 09:19:28;;;;;;;1.50;0.90;;;24.20;78.50;;;;;;4977131;28;20465;-78
2021/08/01 09:22:11;;;;;;;1.50;0.80;;;24.30;78.20;;;;;;4973768;28;20569;-77
2021/08/01 09:24:38;;;;;;;1.50;0.90;;;24.40;77.30;;;;;;4979749;28;20482;-79
2021/08/01 09:27:05;;;;;;;1.50;0.90;;;24.20;77.40;;;;;;4974606;28;20497;-78
2021/08/01 09:29:33;;;;;;;1.50;0.90;;;24.20;77.40;;;;;;4984492;28;20484;-77
2021/08/01 09:32:02;;;;;;;1.50;0.90;;;24.20;78.00;;;;;;4973037;28;20500;-79
2021/08/01 09:34:30;;;;;;;1.50;0.90;;;24.30;77.40;;;;;;4983392;28;20527;-80
2021/08/01 09:37:02;;;;;;;1.43;0.80;;;24.40;77.20;;;;;;4976112;28;21464;-82
2021/08/01 09:39:29;;;;;;;1.47;0.90;;;24.60;77.40;;;;;;4987481;28;20556;-80
2021/08/01 09:42:03;;;;;;;1.50;0.90;;;25.00;77.10;;;;;;4970114;28;20504;-79
2021/08/01 09:44:31;;;;;;;1.50;0.80;;;25.30;76.30;;;;;;4983667;28;20468;-80
2021/08/01 09:46:58;;;;;;;1.50;0.80;;;25.50;75.90;;;;;;4975051;28;20572;-81
2021/08/01 09:49:28;;;;;;;1.50;0.90;;;25.60;75.40;;;;;;4979976;28;20476;-81
2021/08/01 09:51:57;;;;;;;1.50;0.90;;;25.70;74.40;;;;;;4971229;28;20810;-81
2021/08/01 09:54:27;;;;;;;1.50;0.90;;;25.80;74.10;;;;;;4981360;28;20523;-78
2021/08/01 09:56:58;;;;;;;1.50;0.80;;;25.80;73.70;;;;;;4977569;28;21060;-80
2021/08/01 09:59:26;;;;;;;1.50;0.90;;;25.70;73.50;;;;;;4985799;28;20992;-78
2021/08/01 10:01:55;;;;;;;1.50;0.90;;;25.60;73.80;;;;;;4976676;28;20496;-81
2021/08/01 10:04:24;;;;;;;1.50;0.83;;;25.60;73.90;;;;;;4987731;28;20745;-81
2021/08/01 10:07:06;;;;;;;1.50;0.90;;;25.60;73.80;;;;;;5016882;23;20487;-80
2021/08/01 10:09:33;;;;;;;1.50;0.80;;;25.70;73.60;;;;;;4997451;28;20479;-80
2021/08/01 10:12:00;;;;;;;1.50;0.90;;;25.70;73.90;;;;;;4988983;28;20502;-79
2021/08/01 10:14:28;;;;;;;1.47;0.80;;;25.80;74.30;;;;;;4996604;28;20483;-79
2021/08/01 10:16:55;;;;;;;1.50;1.00;;;25.70;73.30;;;;;;4990429;28;20542;-79
2021/08/01 10:19:21;;;;;;;1.50;0.80;;;25.50;74.60;;;;;;5001416;28;20468;-81
2021/08/01 10:21:50;;;;;;;1.47;0.80;;;25.40;75.10;;;;;;4989928;28;20506;-78
2021/08/01 10:24:23;;;;;;;1.50;0.90;;;25.30;76.30;;;;;;4996113;28;20475;-81
2021/08/01 10:26:53;;;;;;;1.50;0.80;;;25.20;76.20;;;;;;4990748;28;20527;-78
2021/08/01 10:29:39;;;;;;;1.50;0.90;;;25.10;76.20;;;;;;5000528;28;21127;-79
2021/08/01 10:32:09;;;;;;;1.50;0.80;;;25.00;76.30;;;;;;4994644;28;20491;-79
2021/08/01 10:34:45;;;;;;;1.50;0.90;;;24.90;75.90;;;;;;4997323;28;20476;-79
2021/08/01 10:37:20;;;;;;;1.47;0.80;;;24.90;76.30;;;;;;4991769;28;20486;-79
2021/08/01 10:39:49;;;;;;;1.40;0.80;;;25.10;75.50;;;;;;4991428;28;20601;-78
2021/08/01 10:42:18;;;;;;;1.50;0.90;;;25.30;75.90;;;;;;5002738;28;20483;-79
2021/08/01 10:44:45;;;;;;;1.50;0.90;;;25.40;75.80;;;;;;4995309;28;20472;-79
2021/08/01 10:47:13;;;;;;;1.50;0.80;;;25.30;75.40;;;;;;4991882;28;20483;-81
2021/08/01 10:49:42;;;;;;;1.50;0.90;;;25.10;75.80;;;;;;4993107;28;20495;-78
2021/08/01 10:52:11;;;;;;;1.43;0.80;;;24.90;76.80;;;;;;4988534;28;20496;-78
2021/08/01 10:54:55;;;;;;;1.50;0.87;;;25.00;77.80;;;;;;4993341;28;20554;-79
2021/08/01 10:57:22;;;;;;;1.50;0.90;;;25.20;76.50;;;;;;4991182;28;20695;-80
2021/08/01 11:00:13;;;;;;;1.50;0.80;;;25.40;75.00;;;;;;4993775;28;20475;-80
2021/08/01 11:02:40;;;;;;;1.43;0.80;;;25.40;75.40;;;;;;4979360;28;20998;-79
2021/08/01 11:05:41;;;;;;;1.47;0.80;;;25.40;75.30;;;;;;4986921;28;20500;-80
2021/08/01 11:08:09;;;;;;;1.47;0.90;;;25.20;74.70;;;;;;4913423;29;20484;-79
2021/08/01 11:10:41;;;;;;;1.47;0.90;;;25.00;75.80;;;;;;4924230;29;20467;-78
2021/08/01 11:13:36;;;;;;;1.50;0.80;;;25.10;75.90;;;;;;4949325;28;20481;-77
2021/08/01 11:16:06;;;;;;;1.50;0.90;;;25.20;75.90;;;;;;4981006;28;21164;-80
2021/08/01 11:18:35;;;;;;;1.50;0.90;;;25.00;76.20;;;;;;4998516;28;21000;-78
2021/08/01 11:21:04;;;;;;;1.47;0.80;;;24.90;77.00;;;;;;4972861;28;20465;-78
2021/08/01 11:24:07;;;;;;;1.43;0.80;;;24.80;77.20;;;;;;5000162;28;20461;-78
2021/08/01 11:26:37;;;;;;;1.50;0.87;;;24.70;76.90;;;;;;4978654;28;20507;-79
2021/08/01 11:29:09;;;;;;;1.50;0.90;;;24.60;77.10;;;;;;4994238;28;20548;-77
2021/08/01 11:31:40;;;;;;;1.50;0.90;;;24.40;76.70;;;;;;4979249;28;20495;-78
2021/08/01 11:34:18;;;;;;;1.40;0.90;;;24.30;78.00;;;;;;4994104;28;20911;-78
2021/08/01 11:36:46;;;;;;;1.50;0.90;;;24.60;77.20;;;;;;4979941;28;20515;-78
2021/08/01 11:39:14;;;;;;;1.50;0.90;;;25.10;76.80;;;;;;4990205;28;20473;-77
2021/08/01 11:41:45;;;;;;;1.43;0.90;;;25.30;74.80;;;;;;4980253;28;20487;-78
2021/08/01 11:44:15;;;;;;;1.50;0.90;;;25.40;74.70;;;;;;4993258;28;20461;-77
2021/08/01 11:47:04;;;;;;;1.50;0.80;;;25.40;74.00;;;;;;4976756;28;21077;-78
2021/08/01 11:49:33;;;;;;;1.43;0.90;;;25.50;73.80;;;;;;4987787;28;21024;-77
2021/08/01 11:52:02;;;;;;;1.43;0.80;;;25.50;74.70;;;;;;4982884;28;20472;-75
2021/08/01 11:54:30;;;;;;;1.47;0.80;;;25.80;75.10;;;;;;4987400;28;20967;-76
2021/08/01 11:57:02;;;;;;;1.50;0.87;;;26.10;74.90;;;;;;4980973;28;20928;-79
2021/08/01 11:59:30;;;;;;;1.50;0.80;;;26.50;73.20;;;;;;4988684;28;20629;-77
2021/08/01 12:01:59;;;;;;;1.50;0.90;;;26.80;72.30;;;;;;4984214;28;20998;-79
2021/08/01 12:04:27;;;;;;;1.50;0.80;;;27.10;71.20;;;;;;4983526;28;21018;-78
2021/08/01 12:06:54;;;;;;;1.50;0.87;;;27.10;71.70;;;;;;4983595;28;20850;-80
2021/08/01 12:09:23;;;;;;;1.50;0.80;;;26.80;72.00;;;;;;4987895;28;20465;-80
2021/08/01 12:11:52;;;;;;;1.50;0.80;;;26.50;72.30;;;;;;4982783;28;21023;-79
2021/08/01 12:14:24;;;;;;;1.40;0.80;;;26.50;73.90;;;;;;4992763;28;20492;-78
2021/08/01 12:17:01;;;;;;;1.43;0.80;;;26.50;74.40;;;;;;4983587;28;20538;-78
2021/08/01 12:19:30;;;;;;;1.50;0.90;;;26.70;76.40;;;;;;4989422;28;21041;-77
2021/08/01 12:22:00;;;;;;;1.47;0.80;;;27.00;74.40;;;;;;4983589;28;20843;-77
2021/08/01 12:24:39;;;;;;;1.50;0.80;;;27.20;73.40;;;;;;4991201;28;21038;-79
2021/08/01 12:27:21;;;;;;;;;;;;;;;;;;;;;
2021/08/01 12:29:59;;;;;;;1.50;0.90;;;27.70;73.10;;;;;;4982999;28;20464;-81
2021/08/01 12:32:38;;;;;;;1.50;0.80;;;27.90;70.80;;;;;;4989291;28;20526;-79
2021/08/01 12:35:09;;;;;;;1.47;0.80;;;27.80;71.90;;;;;;4986989;28;20476;-77
2021/08/01 12:37:51;;;;;;;1.50;0.90;;;27.90;72.20;;;;;;4983454;28;20494;-78
2021/08/01 12:40:35;;;;;;;1.60;1.20;;;28.10;72.40;;;;;;4984154;28;20818;-79
2021/08/01 12:43:08;;;;;;;1.50;0.80;;;28.30;70.30;;;;;;4988945;28;20487;-78
2021/08/01 12:45:39;;;;;;;1.50;0.80;;;28.30;69.70;;;;;;4984170;28;20735;-79
2021/08/01 12:48:16;;;;;;;1.47;0.80;;;28.10;70.00;;;;;;4991302;28;20487;-79
2021/08/01 12:50:50;;;;;;;1.50;0.80;;;27.90;70.50;;;;;;4986995;28;20464;-78
2021/08/01 12:53:23;;;;;;;1.50;0.80;;;27.50;70.00;;;;;;4979300;28;20490;-78
2021/08/01 12:56:27;;;;;;;;;;;;;;;;;;;;;
2021/08/01 12:59:11;;;;;;;1.50;0.80;;;26.70;72.20;;;;;;4995395;28;20464;-79